createdAt,value
2019-04-27T00:00:43.442Z,1005.57
2019-04-27T00:01:45.260Z,1005.58
2019-04-27T00:02:43.590Z,1005.55
2019-04-27T00:03:44.851Z,1005.55
2019-04-27T00:04:43.417Z,1005.53
2019-04-27T00:05:43.517Z,1005.50
2019-04-27T00:06:46.418Z,1005.55
2019-04-27T00:07:43.961Z,1005.53
2019-04-27T00:08:43.396Z,1005.50
2019-04-27T00:09:50.299Z,1005.50
2019-04-27T00:10:43.725Z,1005.48
2019-04-27T00:11:45.445Z,1005.44
2019-04-27T00:12:43.370Z,1005.46
2019-04-27T00:13:43.968Z,1005.45
2019-04-27T00:14:43.884Z,1005.43
2019-04-27T00:15:43.944Z,1005.42
2019-04-27T00:16:47.023Z,1005.40
2019-04-27T00:17:48.700Z,1005.36
2019-04-27T00:18:45.527Z,1005.34
2019-04-27T00:19:43.853Z,1005.32
2019-04-27T00:20:43.451Z,1005.30
2019-04-27T00:21:43.321Z,1005.32
2019-04-27T00:22:43.620Z,1005.31
2019-04-27T00:23:43.307Z,1005.29
2019-04-27T00:24:44.184Z,1005.29
2019-04-27T00:25:43.795Z,1005.30
2019-04-27T00:26:45.485Z,1005.28
2019-04-27T00:27:43.653Z,1005.25
2019-04-27T00:28:43.468Z,1005.27
2019-04-27T00:29:43.313Z,1005.21
2019-04-27T00:30:43.878Z,1005.24
2019-04-27T00:31:43.544Z,1005.24
2019-04-27T00:32:43.402Z,1005.20
2019-04-27T00:33:43.518Z,1005.15
2019-04-27T00:34:43.263Z,1005.20
2019-04-27T00:35:43.827Z,1005.19
2019-04-27T00:36:43.590Z,1005.23
2019-04-27T00:37:44.898Z,1005.23
2019-04-27T00:38:43.634Z,1005.21
2019-04-27T00:39:43.389Z,1005.17
2019-04-27T00:40:43.678Z,1005.18
2019-04-27T00:41:43.208Z,1005.15
2019-04-27T00:42:44.117Z,1005.14
2019-04-27T00:43:44.550Z,1005.10
2019-04-27T00:44:43.198Z,1005.10
2019-04-27T00:45:43.702Z,1005.10
2019-04-27T00:46:43.223Z,1005.09
2019-04-27T00:47:54.618Z,1005.11
2019-04-27T00:48:43.362Z,1005.10
2019-04-27T00:49:44.364Z,1005.14
2019-04-27T00:50:43.877Z,1005.11
2019-04-27T00:51:43.476Z,1005.13
2019-04-27T00:52:43.144Z,1005.11
2019-04-27T00:53:43.629Z,1005.12
2019-04-27T00:54:44.173Z,1005.18
2019-04-27T00:55:43.533Z,1005.17
2019-04-27T00:56:43.128Z,1005.17
2019-04-27T00:57:43.573Z,1005.14
2019-04-27T00:58:45.407Z,1005.14
2019-04-27T00:59:43.236Z,1005.12
2019-04-27T01:00:43.961Z,1005.12
2019-04-27T01:01:43.610Z,1005.11
2019-04-27T01:02:43.564Z,1005.13
2019-04-27T01:03:43.174Z,1005.10
2019-04-27T01:04:43.081Z,1005.06
2019-04-27T01:05:43.177Z,1005.09
2019-04-27T01:06:43.744Z,1005.05
2019-04-27T01:07:43.467Z,1005.05
2019-04-27T01:08:44.918Z,1004.99
2019-04-27T01:09:43.056Z,1005.01
2019-04-27T01:10:43.551Z,1004.99
2019-04-27T01:11:43.430Z,1004.98
2019-04-27T01:12:43.112Z,1004.98
2019-04-27T01:13:43.509Z,1004.96
2019-04-27T01:14:45.078Z,1004.96
2019-04-27T01:15:43.163Z,1004.98
2019-04-27T01:16:43.010Z,1004.91
2019-04-27T01:17:43.012Z,1004.94
2019-04-27T01:18:43.007Z,1004.89
2019-04-27T01:19:42.994Z,1004.86
2019-04-27T01:20:42.994Z,1004.85
2019-04-27T01:21:42.990Z,1004.84
2019-04-27T01:22:42.983Z,1004.82
2019-04-27T01:23:42.971Z,1004.84
2019-04-27T01:24:42.972Z,1004.84
2019-04-27T01:25:42.969Z,1004.83
2019-04-27T01:26:42.954Z,1004.77
2019-04-27T01:27:42.951Z,1004.79
2019-04-27T01:28:42.943Z,1004.76
2019-04-27T01:29:42.943Z,1004.76
2019-04-27T01:30:42.933Z,1004.71
2019-04-27T01:31:42.931Z,1004.71
2019-04-27T01:32:42.922Z,1004.70
2019-04-27T01:33:42.919Z,1004.70
2019-04-27T01:34:42.917Z,1004.67
2019-04-27T01:35:42.905Z,1004.66
2019-04-27T01:36:42.915Z,1004.64
2019-04-27T01:37:42.892Z,1004.67
2019-04-27T01:38:42.889Z,1004.64
2019-04-27T01:39:42.887Z,1004.62
2019-04-27T01:40:42.879Z,1004.62
2019-04-27T01:41:42.873Z,1004.61
2019-04-27T01:42:42.865Z,1004.59
2019-04-27T01:43:42.861Z,1004.60
2019-04-27T01:44:42.858Z,1004.60
2019-04-27T01:45:42.846Z,1004.58
2019-04-27T01:46:42.838Z,1004.56
2019-04-27T01:47:42.841Z,1004.57
2019-04-27T01:48:42.831Z,1004.55
2019-04-27T01:49:42.821Z,1004.54
2019-04-27T01:50:42.816Z,1004.52
2019-04-27T01:51:42.816Z,1004.55
2019-04-27T01:52:42.810Z,1004.47
2019-04-27T01:53:42.797Z,1004.47
2019-04-27T01:54:42.794Z,1004.49
2019-04-27T01:55:42.794Z,1004.46
2019-04-27T01:56:42.782Z,1004.47
2019-04-27T01:57:42.778Z,1004.44
2019-04-27T01:58:42.768Z,1004.42
2019-04-27T01:59:42.765Z,1004.47
2019-04-27T02:00:42.756Z,1004.45
2019-04-27T02:01:42.758Z,1004.46
2019-04-27T02:02:42.754Z,1004.51
2019-04-27T02:03:42.738Z,1004.47
2019-04-27T02:04:42.734Z,1004.43
2019-04-27T02:05:42.727Z,1004.42
2019-04-27T02:06:42.728Z,1004.44
2019-04-27T02:07:42.722Z,1004.43
2019-04-27T02:08:42.710Z,1004.44
2019-04-27T02:09:42.708Z,1004.42
2019-04-27T02:10:42.702Z,1004.42
2019-04-27T02:11:42.691Z,1004.44
2019-04-27T02:12:44.140Z,1004.39
2019-04-27T02:13:42.683Z,1004.39
2019-04-27T02:14:42.679Z,1004.43
2019-04-27T02:15:42.674Z,1004.36
2019-04-27T02:16:42.668Z,1004.36
2019-04-27T02:17:42.661Z,1004.36
2019-04-27T02:18:42.653Z,1004.38
2019-04-27T02:19:42.650Z,1004.37
2019-04-27T02:20:44.425Z,1004.34
2019-04-27T02:21:42.635Z,1004.34
2019-04-27T02:22:42.632Z,1004.32
2019-04-27T02:23:42.621Z,1004.30
2019-04-27T02:24:42.622Z,1004.29
2019-04-27T02:25:42.609Z,1004.25
2019-04-27T02:26:42.605Z,1004.21
2019-04-27T02:27:42.610Z,1004.25
2019-04-27T02:28:42.593Z,1004.22
2019-04-27T02:29:42.583Z,1004.20
2019-04-27T02:30:42.586Z,1004.19
2019-04-27T02:31:42.592Z,1004.20
2019-04-27T02:32:42.609Z,1004.15
2019-04-27T02:33:42.564Z,1004.19
2019-04-27T02:34:42.569Z,1004.15
2019-04-27T02:35:42.547Z,1004.18
2019-04-27T02:36:42.553Z,1004.17
2019-04-27T02:37:42.541Z,1004.16
2019-04-27T02:38:42.533Z,1004.16
2019-04-27T02:39:42.526Z,1004.15
2019-04-27T02:40:42.722Z,1004.16
2019-04-27T02:41:42.510Z,1004.17
2019-04-27T02:42:42.511Z,1004.13
2019-04-27T02:43:42.510Z,1004.13
2019-04-27T02:44:42.495Z,1004.10
2019-04-27T02:45:42.489Z,1004.09
2019-04-27T02:46:42.487Z,1004.09
2019-04-27T02:47:42.478Z,1004.11
2019-04-27T02:48:55.999Z,1004.08
2019-04-27T02:49:42.461Z,1004.06
2019-04-27T02:50:42.459Z,1004.07
2019-04-27T02:51:43.011Z,1004.08
2019-04-27T02:52:42.440Z,1004.06
2019-04-27T02:53:42.436Z,1004.08
2019-04-27T02:54:42.447Z,1004.08
2019-04-27T02:55:42.429Z,1004.07
2019-04-27T02:56:42.420Z,1004.09
2019-04-27T02:57:42.416Z,1004.09
2019-04-27T02:58:42.411Z,1004.06
2019-04-27T02:59:42.401Z,1004.03
2019-04-27T03:00:42.396Z,1004.05
2019-04-27T03:01:46.321Z,1004.02
2019-04-27T03:02:42.384Z,1004.05
2019-04-27T03:03:42.381Z,1004.01
2019-04-27T03:04:42.373Z,1004.04
2019-04-27T03:05:42.367Z,1004.03
2019-04-27T03:06:42.355Z,1004.02
2019-04-27T03:07:42.850Z,1003.99
2019-04-27T03:08:42.845Z,1004.01
2019-04-27T03:09:42.341Z,1004.00
2019-04-27T03:10:42.337Z,1004.01
2019-04-27T03:11:42.325Z,1004.00
2019-04-27T03:12:42.551Z,1003.93
2019-04-27T03:13:42.317Z,1003.93
2019-04-27T03:14:42.319Z,1003.95
2019-04-27T03:15:42.308Z,1003.92
2019-04-27T03:16:42.293Z,1003.93
2019-04-27T03:17:42.286Z,1003.94
2019-04-27T03:18:42.286Z,1003.90
2019-04-27T03:19:42.283Z,1003.94
2019-04-27T03:20:42.270Z,1003.95
2019-04-27T03:21:42.260Z,1003.94
2019-04-27T03:22:42.262Z,1003.92
2019-04-27T03:23:42.249Z,1003.89
2019-04-27T03:24:42.243Z,1003.90
2019-04-27T03:25:42.239Z,1003.90
2019-04-27T03:26:42.237Z,1003.91
2019-04-27T03:27:42.234Z,1003.89
2019-04-27T03:28:42.218Z,1003.89
2019-04-27T03:29:42.218Z,1003.88
2019-04-27T03:30:43.365Z,1003.88
2019-04-27T03:31:47.576Z,1003.87
2019-04-27T03:32:43.296Z,1003.86
2019-04-27T03:33:43.320Z,1003.86
2019-04-27T03:34:42.311Z,1003.82
2019-04-27T03:35:43.575Z,1003.79
2019-04-27T03:36:42.172Z,1003.80
2019-04-27T03:37:42.162Z,1003.75
2019-04-27T03:38:42.160Z,1003.78
2019-04-27T03:39:42.151Z,1003.77
2019-04-27T03:40:42.147Z,1003.81
2019-04-27T03:41:42.141Z,1003.78
2019-04-27T03:42:42.136Z,1003.74
2019-04-27T03:43:42.134Z,1003.73
2019-04-27T03:44:42.120Z,1003.74
2019-04-27T03:45:42.116Z,1003.68
2019-04-27T03:46:42.110Z,1003.67
2019-04-27T03:47:42.105Z,1003.71
2019-04-27T03:48:42.093Z,1003.67
2019-04-27T03:49:42.086Z,1003.67
2019-04-27T03:50:42.981Z,1003.73
2019-04-27T03:51:42.075Z,1003.69
2019-04-27T03:52:42.068Z,1003.73
2019-04-27T03:53:42.068Z,1003.69
2019-04-27T03:54:42.056Z,1003.69
2019-04-27T03:55:42.837Z,1003.68
2019-04-27T03:56:42.051Z,1003.67
2019-04-27T03:57:42.040Z,1003.64
2019-04-27T03:58:42.041Z,1003.68
2019-04-27T03:59:42.030Z,1003.63
2019-04-27T04:00:42.019Z,1003.68
2019-04-27T04:01:42.024Z,1003.68
2019-04-27T04:02:42.009Z,1003.65
2019-04-27T04:03:42.002Z,1003.67
2019-04-27T04:04:41.999Z,1003.67
2019-04-27T04:05:41.992Z,1003.64
2019-04-27T04:06:41.984Z,1003.60
2019-04-27T04:07:41.977Z,1003.65
2019-04-27T04:08:41.971Z,1003.68
2019-04-27T04:09:41.970Z,1003.64
2019-04-27T04:10:41.998Z,1003.61
2019-04-27T04:11:41.955Z,1003.64
2019-04-27T04:12:41.948Z,1003.65
2019-04-27T04:13:41.938Z,1003.66
2019-04-27T04:14:42.921Z,1003.67
2019-04-27T04:15:41.936Z,1003.71
2019-04-27T04:16:41.921Z,1003.68
2019-04-27T04:17:41.918Z,1003.66
2019-04-27T04:18:41.914Z,1003.67
2019-04-27T04:19:53.966Z,1003.64
2019-04-27T04:20:41.912Z,1003.64
2019-04-27T04:21:41.911Z,1003.64
2019-04-27T04:22:41.891Z,1003.72
2019-04-27T04:23:41.879Z,1003.67
2019-04-27T04:24:41.869Z,1003.66
2019-04-27T04:25:41.865Z,1003.66
2019-04-27T04:26:41.860Z,1003.64
2019-04-27T04:27:42.784Z,1003.65
2019-04-27T04:28:41.849Z,1003.67
2019-04-27T04:29:41.847Z,1003.64
2019-04-27T04:30:41.835Z,1003.63
2019-04-27T04:31:41.836Z,1003.59
2019-04-27T04:32:41.823Z,1003.59
2019-04-27T04:33:41.817Z,1003.61
2019-04-27T04:34:41.816Z,1003.54
2019-04-27T04:35:41.802Z,1003.60
2019-04-27T04:36:42.715Z,1003.57
2019-04-27T04:37:41.799Z,1003.58
2019-04-27T04:38:41.787Z,1003.60
2019-04-27T04:39:41.788Z,1003.58
2019-04-27T04:40:41.779Z,1003.59
2019-04-27T04:41:43.661Z,1003.58
2019-04-27T04:42:41.764Z,1003.58
2019-04-27T04:43:41.763Z,1003.60
2019-04-27T04:44:41.753Z,1003.63
2019-04-27T04:45:41.749Z,1003.59
2019-04-27T04:46:41.745Z,1003.59
2019-04-27T04:47:41.743Z,1003.61
2019-04-27T04:48:41.728Z,1003.62
2019-04-27T04:49:41.728Z,1003.57
2019-04-27T04:50:41.714Z,1003.59
2019-04-27T04:51:41.716Z,1003.60
2019-04-27T04:52:42.453Z,1003.59
2019-04-27T04:53:41.698Z,1003.59
2019-04-27T04:54:41.691Z,1003.61
2019-04-27T04:55:41.690Z,1003.57
2019-04-27T04:56:41.687Z,1003.55
2019-04-27T04:57:41.680Z,1003.59
2019-04-27T04:58:41.746Z,1003.62
2019-04-27T04:59:43.801Z,1003.60
2019-04-27T05:00:41.667Z,1003.64
2019-04-27T05:01:41.653Z,1003.66
2019-04-27T05:02:41.675Z,1003.63
2019-04-27T05:03:41.645Z,1003.64
2019-04-27T05:04:41.638Z,1003.65
2019-04-27T05:05:41.633Z,1003.62
2019-04-27T05:06:41.628Z,1003.62
2019-04-27T05:07:41.621Z,1003.62
2019-04-27T05:08:41.616Z,1003.62
2019-04-27T05:09:41.609Z,1003.64
2019-04-27T05:10:41.609Z,1003.61
2019-04-27T05:11:41.599Z,1003.63
2019-04-27T05:12:41.592Z,1003.59
2019-04-27T05:13:41.592Z,1003.63
2019-04-27T05:14:41.578Z,1003.64
2019-04-27T05:15:41.579Z,1003.64
2019-04-27T05:16:41.568Z,1003.63
2019-04-27T05:17:41.570Z,1003.63
2019-04-27T05:18:41.557Z,1003.63
2019-04-27T05:19:41.559Z,1003.63
2019-04-27T05:20:41.547Z,1003.63
2019-04-27T05:21:41.548Z,1003.58
2019-04-27T05:22:41.538Z,1003.62
2019-04-27T05:23:41.539Z,1003.59
2019-04-27T05:24:41.528Z,1003.56
2019-04-27T05:25:41.521Z,1003.58
2019-04-27T05:26:41.519Z,1003.59
2019-04-27T05:27:41.519Z,1003.55
2019-04-27T05:28:41.505Z,1003.57
2019-04-27T05:29:41.502Z,1003.55
2019-04-27T05:30:41.497Z,1003.57
2019-04-27T05:31:41.496Z,1003.57
2019-04-27T05:32:41.484Z,1003.63
2019-04-27T05:33:41.482Z,1003.61
2019-04-27T05:34:41.477Z,1003.59
2019-04-27T05:35:41.473Z,1003.61
2019-04-27T05:36:48.381Z,1003.58
2019-04-27T05:37:44.287Z,1003.58
2019-04-27T05:38:45.962Z,1003.58
2019-04-27T05:39:41.453Z,1003.57
2019-04-27T05:40:41.447Z,1003.55
2019-04-27T05:41:41.817Z,1003.55
2019-04-27T05:42:41.442Z,1003.58
2019-04-27T05:43:41.432Z,1003.55
2019-04-27T05:44:45.650Z,1003.57
2019-04-27T05:45:41.426Z,1003.53
2019-04-27T05:46:41.416Z,1003.53
2019-04-27T05:47:43.355Z,1003.56
2019-04-27T05:48:41.411Z,1003.51
2019-04-27T05:49:44.491Z,1003.54
2019-04-27T05:50:45.720Z,1003.54
2019-04-27T05:51:42.047Z,1003.55
2019-04-27T05:52:41.392Z,1003.49
2019-04-27T05:53:41.386Z,1003.47
2019-04-27T05:54:41.381Z,1003.55
2019-04-27T05:55:41.377Z,1003.53
2019-04-27T05:56:41.368Z,1003.48
2019-04-27T05:57:41.372Z,1003.54
2019-04-27T05:58:41.365Z,1003.55
2019-04-27T05:59:41.360Z,1003.51
2019-04-27T06:00:41.355Z,1003.52
2019-04-27T06:01:41.350Z,1003.57
2019-04-27T06:02:41.343Z,1003.57
2019-04-27T06:03:41.344Z,1003.54
2019-04-27T06:04:41.469Z,1003.59
2019-04-27T06:05:41.332Z,1003.55
2019-04-27T06:06:41.330Z,1003.53
2019-04-27T06:07:41.325Z,1003.51
2019-04-27T06:08:41.315Z,1003.53
2019-04-27T06:09:41.315Z,1003.53
2019-04-27T06:10:41.310Z,1003.53
2019-04-27T06:11:41.307Z,1003.51
2019-04-27T06:12:41.301Z,1003.53
2019-04-27T06:13:41.298Z,1003.51
2019-04-27T06:14:41.298Z,1003.50
2019-04-27T06:15:41.293Z,1003.50
2019-04-27T06:16:41.288Z,1003.46
2019-04-27T06:17:41.279Z,1003.46
2019-04-27T06:18:41.280Z,1003.51
2019-04-27T06:19:43.787Z,1003.47
2019-04-27T06:20:51.041Z,1003.48
2019-04-27T06:21:41.269Z,1003.43
2019-04-27T06:22:41.263Z,1003.43
2019-04-27T06:23:41.260Z,1003.46
2019-04-27T06:24:41.253Z,1003.44
2019-04-27T06:25:41.257Z,1003.43
2019-04-27T06:26:41.253Z,1003.44
2019-04-27T06:27:41.248Z,1003.44
2019-04-27T06:28:41.239Z,1003.41
2019-04-27T06:29:41.243Z,1003.49
2019-04-27T06:30:41.237Z,1003.40
2019-04-27T06:31:41.233Z,1003.44
2019-04-27T06:32:41.232Z,1003.43
2019-04-27T06:33:41.224Z,1003.43
2019-04-27T06:34:41.216Z,1003.43
2019-04-27T06:35:41.221Z,1003.43
2019-04-27T06:36:41.217Z,1003.43
2019-04-27T06:37:41.209Z,1003.43
2019-04-27T06:38:41.210Z,1003.41
2019-04-27T06:39:41.201Z,1003.35
2019-04-27T06:40:41.199Z,1003.43
2019-04-27T06:41:41.198Z,1003.38
2019-04-27T06:42:41.193Z,1003.32
2019-04-27T06:43:41.184Z,1003.34
2019-04-27T06:44:41.183Z,1003.34
2019-04-27T06:45:41.185Z,1003.31
2019-04-27T06:46:41.247Z,1003.37
2019-04-27T06:47:41.487Z,1003.34
2019-04-27T06:48:41.175Z,1003.25
2019-04-27T06:49:41.168Z,1003.34
2019-04-27T06:50:41.168Z,1003.28
2019-04-27T06:51:41.161Z,1003.29
2019-04-27T06:52:41.159Z,1003.31
2019-04-27T06:53:41.156Z,1003.26
2019-04-27T06:54:41.151Z,1003.33
2019-04-27T06:55:41.145Z,1003.23
2019-04-27T06:56:41.145Z,1003.31
2019-04-27T06:57:41.331Z,1003.26
2019-04-27T06:58:41.136Z,1003.25
2019-04-27T06:59:41.138Z,1003.19
2019-04-27T07:00:41.126Z,1003.23
2019-04-27T07:01:41.123Z,1003.21
2019-04-27T07:02:41.120Z,1003.20
2019-04-27T07:03:41.123Z,1003.23
2019-04-27T07:04:41.113Z,1003.18
2019-04-27T07:05:41.113Z,1003.20
2019-04-27T07:06:52.914Z,1003.19
2019-04-27T07:07:41.106Z,1003.22
2019-04-27T07:08:41.104Z,1003.18
2019-04-27T07:09:41.096Z,1003.23
2019-04-27T07:10:41.091Z,1003.24
2019-04-27T07:11:41.089Z,1003.24
2019-04-27T07:12:41.267Z,1003.26
2019-04-27T07:13:41.082Z,1003.26
2019-04-27T07:14:52.236Z,1003.18
2019-04-27T07:15:41.073Z,1003.19
2019-04-27T07:16:41.073Z,1003.21
2019-04-27T07:17:41.073Z,1003.21
2019-04-27T07:18:41.080Z,1003.20
2019-04-27T07:19:41.060Z,1003.23
2019-04-27T07:20:41.061Z,1003.17
2019-04-27T07:21:41.054Z,1003.13
2019-04-27T07:22:41.047Z,1003.11
2019-04-27T07:23:41.043Z,1003.12
2019-04-27T07:24:41.039Z,1003.13
2019-04-27T07:25:41.037Z,1003.13
2019-04-27T07:26:41.033Z,1003.12
2019-04-27T07:27:41.037Z,1003.12
2019-04-27T07:28:41.066Z,1003.11
2019-04-27T07:29:44.581Z,1003.13
2019-04-27T07:30:41.017Z,1003.15
2019-04-27T07:31:41.021Z,1003.09
2019-04-27T07:32:41.009Z,1003.11
2019-04-27T07:33:41.010Z,1003.11
2019-04-27T07:34:41.005Z,1003.13
2019-04-27T07:35:41.001Z,1003.12
2019-04-27T07:36:41.000Z,1003.14
2019-04-27T07:37:40.998Z,1003.11
2019-04-27T07:38:40.993Z,1003.10
2019-04-27T07:39:40.988Z,1003.13
2019-04-27T07:40:42.041Z,1003.12
2019-04-27T07:41:40.982Z,1003.08
2019-04-27T07:42:41.438Z,1003.13
2019-04-27T07:43:40.978Z,1003.09
2019-04-27T07:44:40.970Z,1003.14
2019-04-27T07:45:40.966Z,1003.16
2019-04-27T07:46:40.962Z,1003.09
2019-04-27T07:47:40.993Z,1003.11
2019-04-27T07:48:40.960Z,1003.12
2019-04-27T07:49:40.952Z,1003.07
2019-04-27T07:50:40.955Z,1003.10
2019-04-27T07:51:40.945Z,1003.08
2019-04-27T07:52:40.947Z,1003.10
2019-04-27T07:53:40.938Z,1003.05
2019-04-27T07:54:41.129Z,1003.11
2019-04-27T07:55:40.928Z,1003.07
2019-04-27T07:56:40.923Z,1003.05
2019-04-27T07:57:40.924Z,1003.05
2019-04-27T07:58:40.922Z,1003.03
2019-04-27T07:59:42.103Z,1003.01
2019-04-27T08:00:40.913Z,1003.05
2019-04-27T08:01:40.902Z,1003.06
2019-04-27T08:02:40.903Z,1003.04
2019-04-27T08:03:40.899Z,1003.05
2019-04-27T08:04:40.895Z,1003.05
2019-04-27T08:05:40.886Z,1003.07
2019-04-27T08:06:40.885Z,1003.08
2019-04-27T08:07:40.876Z,1003.08
2019-04-27T08:08:40.876Z,1003.05
2019-04-27T08:09:40.867Z,1003.06
2019-04-27T08:10:40.867Z,1003.06
2019-04-27T08:11:40.863Z,1003.07
2019-04-27T08:12:40.857Z,1003.06
2019-04-27T08:13:40.851Z,1003.11
2019-04-27T08:14:40.841Z,1003.08
2019-04-27T08:15:40.844Z,1003.07
2019-04-27T08:16:40.840Z,1003.08
2019-04-27T08:17:42.929Z,1003.06
2019-04-27T08:18:40.829Z,1003.06
2019-04-27T08:19:40.820Z,1003.07
2019-04-27T08:20:40.819Z,1003.13
2019-04-27T08:21:44.489Z,1003.09
2019-04-27T08:22:40.807Z,1003.10
2019-04-27T08:23:40.799Z,1003.09
2019-04-27T08:24:40.795Z,1003.10
2019-04-27T08:25:40.795Z,1003.14
2019-04-27T08:26:40.790Z,1003.12
2019-04-27T08:27:40.782Z,1003.10
2019-04-27T08:28:40.775Z,1003.12
2019-04-27T08:29:40.774Z,1003.13
2019-04-27T08:30:40.765Z,1003.12
2019-04-27T08:31:40.761Z,1003.16
2019-04-27T08:32:41.587Z,1003.16
2019-04-27T08:33:40.753Z,1003.13
2019-04-27T08:34:40.748Z,1003.10
2019-04-27T08:35:40.808Z,1003.19
2019-04-27T08:36:40.740Z,1003.22
2019-04-27T08:37:40.729Z,1003.07
2019-04-27T08:38:40.730Z,1003.12
2019-04-27T08:39:40.726Z,1003.07
2019-04-27T08:40:40.713Z,1003.09
2019-04-27T08:41:40.726Z,1003.12
2019-04-27T08:42:40.706Z,1003.11
2019-04-27T08:43:40.707Z,1003.06
2019-04-27T08:44:40.708Z,1003.09
2019-04-27T08:45:40.693Z,1003.09
2019-04-27T08:46:40.689Z,1003.10
2019-04-27T08:47:41.762Z,1003.08
2019-04-27T08:48:40.677Z,1003.07
2019-04-27T08:49:40.671Z,1003.04
2019-04-27T08:50:42.129Z,1003.04
2019-04-27T08:51:41.612Z,1003.00
2019-04-27T08:52:41.873Z,1002.98
2019-04-27T08:53:40.654Z,1002.96
2019-04-27T08:54:40.649Z,1002.96
2019-04-27T08:55:40.648Z,1002.92
2019-04-27T08:56:40.650Z,1003.00
2019-04-27T08:57:40.636Z,1002.94
2019-04-27T08:58:40.634Z,1002.94
2019-04-27T08:59:40.631Z,1002.96
2019-04-27T09:00:40.628Z,1002.93
2019-04-27T09:01:40.622Z,1002.89
2019-04-27T09:02:46.835Z,1002.88
2019-04-27T09:03:40.612Z,1002.92
2019-04-27T09:04:40.604Z,1002.87
2019-04-27T09:05:40.605Z,1002.85
2019-04-27T09:06:40.602Z,1002.82
2019-04-27T09:07:40.597Z,1002.91
2019-04-27T09:08:41.244Z,1002.88
2019-04-27T09:09:40.579Z,1002.87
2019-04-27T09:10:40.578Z,1002.86
2019-04-27T09:11:40.572Z,1002.83
2019-04-27T09:12:41.557Z,1002.80
2019-04-27T09:13:41.276Z,1002.85
2019-04-27T09:14:40.778Z,1002.83
2019-04-27T09:15:40.557Z,1002.82
2019-04-27T09:16:40.559Z,1002.83
2019-04-27T09:17:40.548Z,1002.81
2019-04-27T09:18:41.079Z,1002.82
2019-04-27T09:19:40.541Z,1002.79
2019-04-27T09:20:40.541Z,1002.75
2019-04-27T09:21:40.529Z,1002.74
2019-04-27T09:22:40.525Z,1002.80
2019-04-27T09:23:40.525Z,1002.71
2019-04-27T09:24:40.525Z,1002.71
2019-04-27T09:25:40.517Z,1002.69
2019-04-27T09:26:40.511Z,1002.75
2019-04-27T09:27:40.514Z,1002.73
2019-04-27T09:28:40.506Z,1002.70
2019-04-27T09:29:40.503Z,1002.69
2019-04-27T09:30:40.502Z,1002.71
2019-04-27T09:31:40.498Z,1002.68
2019-04-27T09:32:40.836Z,1002.60
2019-04-27T09:33:40.484Z,1002.64
2019-04-27T09:34:40.482Z,1002.65
2019-04-27T09:35:40.477Z,1002.61
2019-04-27T09:36:40.474Z,1002.59
2019-04-27T09:37:40.472Z,1002.60
2019-04-27T09:38:40.466Z,1002.62
2019-04-27T09:39:40.468Z,1002.58
2019-04-27T09:40:40.463Z,1002.59
2019-04-27T09:41:40.458Z,1002.55
2019-04-27T09:42:40.452Z,1002.60
2019-04-27T09:43:40.447Z,1002.56
2019-04-27T09:44:40.452Z,1002.55
2019-04-27T09:45:40.445Z,1002.57
2019-04-27T09:46:40.439Z,1002.55
2019-04-27T09:47:40.555Z,1002.60
2019-04-27T09:48:40.441Z,1002.57
2019-04-27T09:49:40.425Z,1002.57
2019-04-27T09:50:40.422Z,1002.58
2019-04-27T09:51:40.422Z,1002.55
2019-04-27T09:52:40.417Z,1002.54
2019-04-27T09:53:40.409Z,1002.51
2019-04-27T09:54:40.414Z,1002.45
2019-04-27T09:55:40.405Z,1002.49
2019-04-27T09:56:40.399Z,1002.59
2019-04-27T09:57:40.394Z,1002.54
2019-04-27T09:58:40.399Z,1002.47
2019-04-27T09:59:40.392Z,1002.50
2019-04-27T10:00:40.391Z,1002.54
2019-04-27T10:01:40.394Z,1002.47
2019-04-27T10:02:40.383Z,1002.46
2019-04-27T10:03:40.377Z,1002.49
2019-04-27T10:04:40.374Z,1002.50
2019-04-27T10:05:40.368Z,1002.44
2019-04-27T10:06:40.363Z,1002.44
2019-04-27T10:07:40.364Z,1002.43
2019-04-27T10:08:40.352Z,1002.41
2019-04-27T10:09:40.351Z,1002.42
2019-04-27T10:10:40.344Z,1002.44
2019-04-27T10:11:40.342Z,1002.44
2019-04-27T10:12:40.343Z,1002.47
2019-04-27T10:13:40.339Z,1002.40
2019-04-27T10:14:40.336Z,1002.41
2019-04-27T10:15:40.329Z,1002.44
2019-04-27T10:16:40.329Z,1002.40
2019-04-27T10:17:40.321Z,1002.39
2019-04-27T10:18:40.319Z,1002.45
2019-04-27T10:19:40.319Z,1002.39
2019-04-27T10:20:41.013Z,1002.35
2019-04-27T10:21:40.304Z,1002.36
2019-04-27T10:22:43.497Z,1002.35
2019-04-27T10:23:40.296Z,1002.37
2019-04-27T10:24:40.293Z,1002.30
2019-04-27T10:25:40.291Z,1002.35
2019-04-27T10:26:40.287Z,1002.28
2019-04-27T10:27:40.278Z,1002.40
2019-04-27T10:28:40.279Z,1002.37
2019-04-27T10:29:40.267Z,1002.28
2019-04-27T10:30:40.270Z,1002.27
2019-04-27T10:31:40.265Z,1002.28
2019-04-27T10:32:42.720Z,1002.30
2019-04-27T10:33:40.250Z,1002.22
2019-04-27T10:34:40.248Z,1002.26
2019-04-27T10:35:40.245Z,1002.27
2019-04-27T10:36:40.243Z,1002.24
2019-04-27T10:37:40.231Z,1002.20
2019-04-27T10:38:40.234Z,1002.24
2019-04-27T10:39:40.223Z,1002.22
2019-04-27T10:40:40.218Z,1002.21
2019-04-27T10:41:40.214Z,1002.20
2019-04-27T10:42:40.215Z,1002.19
2019-04-27T10:43:40.213Z,1002.16
2019-04-27T10:44:40.207Z,1002.19
2019-04-27T10:45:40.200Z,1002.19
2019-04-27T10:46:40.202Z,1002.19
2019-04-27T10:47:40.191Z,1002.17
2019-04-27T10:48:40.187Z,1002.20
2019-04-27T10:49:40.220Z,1002.17
2019-04-27T10:50:40.185Z,1002.18
2019-04-27T10:51:40.178Z,1002.15
2019-04-27T10:52:52.577Z,1002.16
2019-04-27T10:53:40.172Z,1002.14
2019-04-27T10:54:40.173Z,1002.15
2019-04-27T10:55:40.165Z,1002.12
2019-04-27T10:56:40.157Z,1002.10
2019-04-27T10:57:40.162Z,1002.10
2019-04-27T10:58:40.153Z,1002.14
2019-04-27T10:59:40.151Z,1002.12
2019-04-27T11:00:40.145Z,1002.11
2019-04-27T11:01:40.146Z,1002.18
2019-04-27T11:02:40.137Z,1002.19
2019-04-27T11:03:40.137Z,1002.06
2019-04-27T11:04:40.132Z,1002.05
2019-04-27T11:05:40.127Z,1002.10
2019-04-27T11:06:40.121Z,1002.08
2019-04-27T11:07:40.117Z,1002.08
2019-04-27T11:08:40.110Z,1002.09
2019-04-27T11:09:40.105Z,1002.13
2019-04-27T11:10:40.103Z,1002.20
2019-04-27T11:11:40.103Z,1002.48
2019-04-27T11:12:40.102Z,1002.43
2019-04-27T11:13:40.086Z,1002.39
2019-04-27T11:14:40.086Z,1002.47
2019-04-27T11:15:40.084Z,1002.50
2019-04-27T11:16:40.077Z,1002.55
2019-04-27T11:17:40.071Z,1002.60
2019-04-27T11:18:40.065Z,1002.58
2019-04-27T11:19:40.058Z,1002.66
2019-04-27T11:20:40.054Z,1002.61
2019-04-27T11:21:40.048Z,1002.64
2019-04-27T11:22:40.047Z,1002.65
2019-04-27T11:23:40.038Z,1002.62
2019-04-27T11:24:40.035Z,1002.66
2019-04-27T11:25:40.036Z,1002.66
2019-04-27T11:26:40.026Z,1002.67
2019-04-27T11:27:40.023Z,1002.67
2019-04-27T11:28:42.664Z,1002.64
2019-04-27T11:29:40.010Z,1002.67
2019-04-27T11:30:40.003Z,1002.73
2019-04-27T11:31:39.998Z,1002.73
2019-04-27T11:32:39.999Z,1002.74
2019-04-27T11:33:39.994Z,1002.74
2019-04-27T11:34:39.990Z,1002.78
2019-04-27T11:35:39.987Z,1002.76
2019-04-27T11:36:39.977Z,1002.76
2019-04-27T11:37:39.973Z,1002.81
2019-04-27T11:38:39.963Z,1002.84
2019-04-27T11:39:39.966Z,1002.83
2019-04-27T11:40:39.961Z,1002.91
2019-04-27T11:41:39.955Z,1002.85
2019-04-27T11:42:39.953Z,1002.88
2019-04-27T11:43:39.948Z,1002.91
2019-04-27T11:44:39.939Z,1002.91
2019-04-27T11:45:39.934Z,1002.94
2019-04-27T11:46:39.935Z,1002.92
2019-04-27T11:47:39.924Z,1003.09
2019-04-27T11:48:39.926Z,1002.89
2019-04-27T11:49:39.916Z,1002.82
2019-04-27T11:50:39.911Z,1002.88
2019-04-27T11:51:39.908Z,1002.90
2019-04-27T11:52:39.906Z,1002.89
2019-04-27T11:53:39.904Z,1002.86
2019-04-27T11:54:39.893Z,1002.90
2019-04-27T11:55:39.893Z,1002.89
2019-04-27T11:56:39.892Z,1002.89
2019-04-27T11:57:39.883Z,1002.86
2019-04-27T11:58:39.887Z,1002.92
2019-04-27T11:59:39.872Z,1002.92
2019-04-27T12:00:39.876Z,1002.94
2019-04-27T12:01:39.874Z,1002.97
2019-04-27T12:02:39.865Z,1003.01
2019-04-27T12:03:39.861Z,1003.01
2019-04-27T12:04:39.858Z,1003.05
2019-04-27T12:05:39.850Z,1003.00